Airfield :
LOGIN :

Register | Disclaimer

   EN    FR    IT 

 










Legend :    VFR   Marginal VFR   IFR   Intensive IFR   Very Intensive IFR
Visi :
Ceiling :
>= 8 km
>= 3000ft
5 to 8 km
1000 to 3000 ft
1500m to 5 km
500 to 1000 ft
800 to 1500m
200 to 500 ft
< 800m
< 200 ft
Symbols :   Thunderstorms  Fog  Heavy snow  Heavy precipitations  Wind > 20 kt
SIGMETs :     Misc.  Thunderstorms  Icing  Turbulence  Mountain Waves  Volcanic Ashes






- Airport Elevation : 30 ft
- IATA code : CFN


EIDL - Donegal

CURRENT METAR :
  • 211230Z 36026KT 9999 FEW009 SCT014 OVC019 11/08 Q0994

EXPIRED METARs :
  • 211200Z 35026KT 6000 -RA FEW007 OVC009 10/09 Q0994
  • 211130Z 35028KT 8000 -RA FEW006 OVC011 10/09 Q0994
  • 211100Z 35027KT 2600 -RA BR BKN007 OVC015 10/10 Q0993
  • 211030Z 34025KT 2500 -RA BR OVC007 10/09 Q0993
  • 211000Z 35025KT 1700 -RA BR OVC007 10/10 Q0993

TAF TAF EIDL
Valid from the 21 at 12:00 until the 21 at 21:00 UTC


211100Z 2112/2121 35025KT 9999 SCT008 BKN015
TEMPO 2112/2121 35026G37KT
TEMPO 2112/2114 3000 -RA BKN007
PROB40
TEMPO 2114/2117 BKN010



MET'MAP, your aeronautical weather chart ! - Copyright ORBIFLY December 2007 - Disclaimer

ORBIFLY MET'MAP TEAM :

Programming & Development : Alexandra Zaïnal
Concept & original design : Baudouin d'Aumeries
Assistance for programming : Marc-Olivier Méhu
Technical & hardware support : Manuel Goepfert

Contact : metmap@orbifly.com




SOURCES & CREDITS :

   NOAA